Time;durP1;ratioP1;P1;durP2;ratioP2;P2;SDS_P1;SDS_P2;PMS_P1;PMS_P2;Temp;Humidity;BMP_temperature;BMP_pressure;BME280_temperature;BME280_humidity;BME280_pressure;Samples;Min_cycle;Max_cycle;Signal;HPM_P1;HPM_P2
2023/06/16 00:01:47;;;;;;;4.97;2.97;;;;;;;-145.69;nan;51982.97;5079589;28;20205;-80
2023/06/16 00:04:17;;;;;;;5.30;3.20;;;;;;;-145.69;nan;51953.28;5079366;28;20206;-80
2023/06/16 00:06:47;;;;;;;5.47;3.40;;;;;;;-145.69;nan;51977.03;5079345;28;20194;-80
2023/06/16 00:09:15;;;;;;;6.60;3.30;;;;;;;-145.69;nan;51984.97;5079186;28;20212;-81
2023/06/16 00:11:41;;;;;;;5.67;3.10;;;;;;;-145.69;nan;52008.72;5079317;28;20203;-80
2023/06/16 00:14:08;;;;;;;6.87;3.47;;;;;;;-145.69;nan;51965.16;5077509;28;20709;-80
2023/06/16 00:16:36;;;;;;;6.27;3.00;;;;;;;-145.69;nan;51927.53;5075637;28;20594;-80
2023/06/16 00:19:02;;;;;;;7.23;3.20;;;;;;;-145.69;nan;51957.25;5076182;28;20211;-80
2023/06/16 00:21:38;;;;;;;5.83;3.50;;;;;;;-145.69;nan;51953.28;5075871;28;20199;-80
2023/06/16 00:24:05;;;;;;;5.43;3.30;;;;;;;-145.69;nan;51994.88;5076237;28;20198;-80
2023/06/16 00:26:33;;;;;;;4.47;2.87;;;;;;;-145.69;nan;52004.75;5076174;28;20202;-81
2023/06/16 00:28:59;;;;;;;6.10;3.73;;;;;;;-145.69;nan;51949.31;5075990;28;20653;-80
2023/06/16 00:31:26;;;;;;;3.93;3.20;;;;;;;-145.69;nan;52000.81;5076062;28;20199;-81
2023/06/16 00:33:53;;;;;;;4.90;3.40;;;;;;;-145.69;nan;51951.28;5074953;28;20237;-79
2023/06/16 00:36:20;;;;;;;5.33;3.20;;;;;;;-145.69;nan;52004.75;5058495;28;20225;-81
2023/06/16 00:38:46;;;;;;;6.33;3.87;;;;;;;-145.69;nan;51979.03;5074623;28;20661;-81
2023/06/16 00:41:16;;;;;;;6.10;3.63;;;;;;;-145.69;nan;51961.19;5064210;28;20600;-80
2023/06/16 00:43:44;;;;;;;5.33;3.50;;;;;;;-145.69;nan;51988.91;5055884;28;20262;-80
2023/06/16 00:46:17;;;;;;;4.37;3.13;;;;;;;-145.69;nan;51949.31;5055160;28;20203;-80
2023/06/16 00:48:44;;;;;;;5.33;3.57;;;;;;;-145.69;nan;51963.19;5055469;28;20244;-81
2023/06/16 00:51:11;;;;;;;8.50;3.87;;;;;;;-145.69;nan;51973.06;5055105;28;20658;-80
2023/06/16 00:53:39;;;;;;;5.80;3.67;;;;;;;-145.69;nan;51979.03;5055445;28;20231;-81
2023/06/16 00:56:08;;;;;;;6.07;3.97;;;;;;;-145.69;nan;51977.03;5067132;28;20245;-80
2023/06/16 00:58:37;;;;;;;6.27;3.50;;;;;;;-145.69;nan;52014.66;5075409;28;20558;-81
2023/06/16 01:01:08;;;;;;;8.33;4.20;;;;;;;-145.69;nan;51998.81;5081091;28;20285;-81
2023/06/16 01:03:35;;;;;;;10.13;3.93;;;;;;;-145.69;nan;51963.19;5076569;28;20248;-80
2023/06/16 01:06:07;;;;;;;5.93;3.40;;;;;;;-145.69;nan;51979.03;5074119;28;20874;-80
2023/06/16 01:08:44;;;;;;;5.60;3.87;;;;;;;-145.69;nan;51965.16;5075032;28;20665;-80
2023/06/16 01:11:18;;;;;;;7.37;3.77;;;;;;;-145.69;nan;51961.19;5074796;28;20198;-80
2023/06/16 01:13:55;;;;;;;5.50;3.90;;;;;;;-145.69;nan;51986.94;5074788;28;20590;-79
2023/06/16 01:16:28;;;;;;;5.70;4.13;;;;;;;-145.69;nan;51939.41;5075047;28;20205;-80
2023/06/16 01:18:55;;;;;;;7.00;3.90;;;;;;;-145.69;nan;51973.06;5074382;28;20219;-81
2023/06/16 01:21:44;;;;;;;7.30;4.60;;;;;;;-145.69;nan;51979.03;5074897;28;20192;-81
2023/06/16 01:24:16;;;;;;;10.37;4.43;;;;;;;-145.69;nan;51969.13;5074512;28;20561;-80
2023/06/16 01:26:49;;;;;;;5.87;3.73;;;;;;;-145.69;nan;52006.75;5074282;28;20206;-81
2023/06/16 01:29:17;;;;;;;5.53;3.63;;;;;;;-145.69;nan;51998.81;5074768;28;20221;-80
2023/06/16 01:31:45;;;;;;;9.07;3.37;;;;;;;-145.69;nan;51996.84;5074591;28;20218;-80
2023/06/16 01:34:13;;;;;;;4.67;3.60;;;;;;;-145.69;nan;51998.81;5074546;28;20226;-80
2023/06/16 01:36:43;;;;;;;6.90;3.67;;;;;;;-145.69;nan;51949.31;5074420;28;20195;-81
2023/06/16 01:39:12;;;;;;;6.60;4.13;;;;;;;-145.69;nan;52002.78;5074381;28;20194;-81
2023/06/16 01:41:41;;;;;;;5.97;3.70;;;;;;;-145.69;nan;52004.75;5074218;28;20281;-80
2023/06/16 01:44:08;;;;;;;5.07;3.40;;;;;;;-145.69;nan;51981.00;5074415;28;20328;-80
2023/06/16 01:46:36;;;;;;;6.40;4.20;;;;;;;-145.69;nan;52004.75;5074245;28;20206;-80
2023/06/16 01:49:03;;;;;;;7.73;3.73;;;;;;;-145.69;nan;51986.94;5073714;28;20226;-80
2023/06/16 01:51:30;;;;;;;11.43;4.17;;;;;;;-145.69;nan;51961.19;5074138;28;20203;-80
2023/06/16 01:53:59;;;;;;;9.43;4.10;;;;;;;-145.69;nan;51981.00;5073255;28;20237;-79
2023/06/16 01:56:28;;;;;;;8.37;4.03;;;;;;;-145.69;nan;51979.03;5073809;28;20199;-80
2023/06/16 01:58:56;;;;;;;9.70;4.00;;;;;;;-145.69;nan;51953.28;5073882;28;20664;-80
2023/06/16 02:01:28;;;;;;;8.80;3.97;;;;;;;-145.69;nan;51982.97;5073871;28;20195;-79
2023/06/16 02:04:02;;;;;;;6.73;3.97;;;;;;;-145.69;nan;51998.81;5074096;28;20202;-80
2023/06/16 02:06:37;;;;;;;6.60;4.00;;;;;;;-145.69;nan;51955.25;5074340;28;20220;-79
2023/06/16 02:09:05;;;;;;;6.73;4.27;;;;;;;-145.69;nan;51957.25;5073495;28;20194;-80
2023/06/16 02:11:33;;;;;;;6.63;3.90;;;;;;;-145.69;nan;51965.16;5073765;28;20641;-79
2023/06/16 02:14:04;;;;;;;7.47;4.40;;;;;;;-145.69;nan;51996.84;5073602;28;20299;-80
2023/06/16 02:16:35;;;;;;;5.90;4.23;;;;;;;-145.69;nan;52000.81;5073526;28;20203;-80
2023/06/16 02:19:02;;;;;;;9.20;4.30;;;;;;;-145.69;nan;52006.75;5073583;28;20202;-80
2023/06/16 02:21:28;;;;;;;7.47;4.37;;;;;;;-145.69;nan;52000.81;5073535;28;20690;-80
2023/06/16 02:23:55;;;;;;;6.60;4.43;;;;;;;-145.69;nan;52008.72;5073767;28;20233;-80
2023/06/16 02:26:22;;;;;;;6.03;4.57;;;;;;;-145.69;nan;51994.88;5073638;28;20260;-80
2023/06/16 02:28:51;;;;;;;21.43;4.27;;;;;;;-145.69;nan;51969.13;5073321;28;20732;-80
2023/06/16 02:31:19;;;;;;;7.87;3.83;;;;;;;-145.69;nan;51992.88;5073011;28;20190;-80
2023/06/16 02:33:46;;;;;;;7.00;4.70;;;;;;;-145.69;nan;51986.94;5073100;28;20254;-80
2023/06/16 02:36:16;;;;;;;5.77;4.07;;;;;;;-145.69;nan;51992.88;5073253;28;20252;-80
2023/06/16 02:38:45;;;;;;;8.80;4.67;;;;;;;-145.69;nan;51984.97;5073208;28;20206;-80
2023/06/16 02:41:11;;;;;;;7.00;4.50;;;;;;;-145.69;nan;51979.03;5056130;28;20204;-80
2023/06/16 02:43:38;;;;;;;10.17;4.47;;;;;;;-145.69;nan;51986.94;5053311;28;20203;-80
2023/06/16 02:46:04;;;;;;;7.27;4.93;;;;;;;-145.69;nan;51986.94;5061989;28;20199;-79
2023/06/16 02:48:32;;;;;;;6.53;4.30;;;;;;;-145.69;nan;51998.81;5073092;28;20589;-80
2023/06/16 02:50:58;;;;;;;6.77;4.47;;;;;;;-145.69;nan;51965.16;5073109;28;20715;-80
2023/06/16 02:53:25;;;;;;;12.57;4.80;;;;;;;-145.69;nan;51981.00;5073007;28;20223;-80
2023/06/16 02:55:52;;;;;;;7.53;5.00;;;;;;;-145.69;nan;51975.06;5053789;28;20191;-81
2023/06/16 02:58:19;;;;;;;5.27;4.07;;;;;;;-145.69;nan;51998.81;5053079;28;20637;-80
2023/06/16 03:00:45;;;;;;;11.20;4.83;;;;;;;-145.69;nan;52028.53;5053873;28;20222;-80
2023/06/16 03:03:16;;;;;;;7.33;4.70;;;;;;;-145.69;nan;51992.88;5073342;28;20199;-80
2023/06/16 03:05:44;;;;;;;6.60;4.37;;;;;;;-145.69;nan;51981.00;5073036;28;20202;-80
2023/06/16 03:08:15;;;;;;;6.93;4.50;;;;;;;-145.69;nan;51990.91;5073079;28;20294;-81
2023/06/16 03:10:42;;;;;;;11.53;5.03;;;;;;;-145.69;nan;52000.81;5073111;28;20206;-80
2023/06/16 03:13:08;;;;;;;9.17;4.50;;;;;;;-145.69;nan;52018.63;5072951;28;20597;-81
2023/06/16 03:15:37;;;;;;;6.63;4.00;;;;;;;-145.69;nan;52000.81;5073048;28;20199;-81
2023/06/16 03:18:04;;;;;;;8.43;4.23;;;;;;;-145.69;nan;51992.88;5072946;28;20199;-80
2023/06/16 03:20:31;;;;;;;13.43;4.90;;;;;;;-145.69;nan;51965.16;5072869;28;20194;-80
2023/06/16 03:22:59;;;;;;;8.53;4.17;;;;;;;-145.69;nan;51996.84;5073071;28;20203;-80
2023/06/16 03:25:26;;;;;;;8.70;4.73;;;;;;;-145.69;nan;51992.88;5072522;28;20294;-80
2023/06/16 03:27:53;;;;;;;8.00;4.87;;;;;;;-145.69;nan;52022.59;5073163;28;20194;-80
2023/06/16 03:30:19;;;;;;;9.03;4.20;;;;;;;-145.69;nan;51979.03;5072868;28;20207;-80
2023/06/16 03:32:46;;;;;;;6.13;4.50;;;;;;;-145.69;nan;51986.94;5071965;28;20199;-81
2023/06/16 03:35:13;;;;;;;7.00;5.10;;;;;;;-145.69;nan;51992.88;5072461;28;20636;-79
2023/06/16 03:37:39;;;;;;;9.27;4.80;;;;;;;-145.69;nan;52012.69;5072846;28;20198;-79
2023/06/16 03:40:09;;;;;;;8.60;5.30;;;;;;;-145.69;nan;52012.69;5072781;28;20293;-80
2023/06/16 03:42:38;;;;;;;7.83;5.13;;;;;;;-145.69;nan;52018.63;5072631;28;20666;-79
2023/06/16 03:45:05;;;;;;;7.33;5.00;;;;;;;-145.69;nan;51984.97;5072622;28;20199;-80
2023/06/16 03:47:40;;;;;;;11.53;5.40;;;;;;;-145.69;nan;52016.66;5072567;28;20199;-80
2023/06/16 03:50:06;;;;;;;7.90;4.90;;;;;;;-145.69;nan;51992.88;5074034;28;20209;-80
2023/06/16 03:52:33;;;;;;;9.77;5.03;;;;;;;-145.69;nan;52004.75;5076216;28;20203;-80
2023/06/16 03:55:00;;;;;;;10.40;5.50;;;;;;;-145.69;nan;52012.69;5075817;28;20230;-79
2023/06/16 03:57:27;;;;;;;7.30;5.00;;;;;;;-145.69;nan;51975.06;5076125;28;20195;-79
2023/06/16 03:59:54;;;;;;;9.27;5.00;;;;;;;-145.69;nan;52004.75;5076253;28;20206;-79
2023/06/16 04:02:21;;;;;;;8.63;5.03;;;;;;;-145.69;nan;52024.56;5075782;28;20206;-79
2023/06/16 04:04:47;;;;;;;12.77;5.07;;;;;;;-145.69;nan;52028.53;5075980;28;20199;-80
2023/06/16 04:07:14;;;;;;;6.73;4.60;;;;;;;-145.69;nan;52004.75;5075712;28;20201;-80
2023/06/16 04:09:40;;;;;;;8.73;5.10;;;;;;;-145.69;nan;51981.00;5076067;28;20199;-80
2023/06/16 04:12:07;;;;;;;10.37;5.03;;;;;;;-145.69;nan;51996.84;5076390;28;20195;-80
2023/06/16 04:14:35;;;;;;;8.10;4.77;;;;;;;-145.69;nan;52004.75;5075898;28;20226;-80
2023/06/16 04:17:02;;;;;;;11.80;5.17;;;;;;;-145.69;nan;51963.19;5075494;28;20198;-80
2023/06/16 04:19:28;;;;;;;5.93;4.33;;;;;;;-145.69;nan;51967.13;5076037;28;20206;-80
2023/06/16 04:21:55;;;;;;;7.10;4.87;;;;;;;-145.69;nan;52008.72;5075854;28;20199;-80
2023/06/16 04:24:21;;;;;;;9.90;4.70;;;;;;;-145.69;nan;52028.53;5075774;28;20531;-80
2023/06/16 04:26:48;;;;;;;9.20;5.00;;;;;;;-145.69;nan;52024.56;5075487;28;20210;-80
2023/06/16 04:29:14;;;;;;;7.37;5.17;;;;;;;-145.69;nan;52006.75;5075815;28;20281;-80
2023/06/16 04:31:42;;;;;;;7.87;5.00;;;;;;;-145.69;nan;51965.16;5071822;28;20191;-80
2023/06/16 04:34:10;;;;;;;7.57;4.77;;;;;;;-145.69;nan;52004.75;5075429;28;20250;-80
2023/06/16 04:36:44;;;;;;;7.90;4.47;;;;;;;-145.69;nan;52008.72;5075525;28;20198;-81
2023/06/16 04:39:11;;;;;;;6.37;4.47;;;;;;;-145.69;nan;51977.03;5075533;28;20248;-81
2023/06/16 04:41:37;;;;;;;6.35;4.88;;;;;;;-145.69;nan;52012.69;5075639;28;20206;-80
2023/06/16 04:44:04;;;;;;;5.93;4.40;;;;;;;-145.69;nan;51992.88;5075396;28;20228;-80
2023/06/16 04:46:30;;;;;;;6.87;4.53;;;;;;;-145.69;nan;51998.81;5075222;28;20199;-80
2023/06/16 04:48:58;;;;;;;7.10;4.37;;;;;;;-145.69;nan;51961.19;5074310;28;20237;-80
2023/06/16 04:51:27;;;;;;;6.73;4.80;;;;;;;-145.69;nan;51998.81;5075025;28;20198;-81
2023/06/16 04:53:53;;;;;;;5.73;4.50;;;;;;;-145.69;nan;51984.97;5075665;28;20257;-80
2023/06/16 04:56:20;;;;;;;7.93;4.70;;;;;;;-145.69;nan;52008.72;5075194;28;20226;-80
2023/06/16 04:58:46;;;;;;;6.93;4.43;;;;;;;-145.69;nan;51988.91;5075005;28;20202;-80
2023/06/16 05:01:14;;;;;;;8.43;4.67;;;;;;;-145.69;nan;51992.88;5074390;28;20214;-80
2023/06/16 05:03:40;;;;;;;9.67;4.80;;;;;;;-145.69;nan;51969.13;5074993;28;20558;-80
2023/06/16 05:06:08;;;;;;;8.53;4.57;;;;;;;-145.69;nan;51988.91;5074772;28;20191;-80
2023/06/16 05:08:35;;;;;;;13.48;5.57;;;;;;;-145.69;nan;51990.91;5055239;28;20234;-80
2023/06/16 05:11:02;;;;;;;8.17;4.60;;;;;;;-145.69;nan;51979.03;5055058;28;20291;-80
2023/06/16 05:13:29;;;;;;;9.17;5.40;;;;;;;-145.69;nan;51969.13;5054911;28;20210;-80
2023/06/16 05:15:56;;;;;;;7.57;5.00;;;;;;;-145.69;nan;51977.03;5054599;28;20227;-79
2023/06/16 05:18:22;;;;;;;9.83;4.47;;;;;;;-145.69;nan;52016.66;5061725;28;20202;-79
2023/06/16 05:20:48;;;;;;;8.17;4.70;;;;;;;-145.69;nan;51945.34;5074600;28;20202;-80
2023/06/16 05:23:16;;;;;;;7.65;4.30;;;;;;;-145.69;nan;51965.16;5074234;28;20554;-80
2023/06/16 05:25:45;;;;;;;10.40;5.03;;;;;;;-145.69;nan;51984.97;5074283;28;20654;-80
2023/06/16 05:28:11;;;;;;;17.63;4.55;;;;;;;-145.69;nan;51973.06;5073344;28;20201;-80
2023/06/16 05:30:38;;;;;;;7.68;4.57;;;;;;;-145.69;nan;51959.22;5074058;28;20206;-80
2023/06/16 05:33:07;;;;;;;7.15;4.80;;;;;;;-145.69;nan;51961.19;5074573;28;20203;-80
2023/06/16 05:35:33;;;;;;;7.88;4.30;;;;;;;-145.69;nan;51975.06;5074533;28;20223;-80
2023/06/16 05:38:00;;;;;;;6.95;4.63;;;;;;;-145.69;nan;51953.28;5073454;28;20199;-80
2023/06/16 05:40:28;;;;;;;6.28;4.50;;;;;;;-145.69;nan;51941.41;5074831;28;20209;-80
2023/06/16 05:42:54;;;;;;;6.40;4.03;;;;;;;-145.69;nan;51889.91;5074224;28;20203;-80
2023/06/16 05:45:21;;;;;;;7.97;3.97;;;;;;;-145.69;nan;51885.94;5074290;28;20195;-80
2023/06/16 05:47:48;;;;;;;4.70;3.63;;;;;;;-145.69;nan;51864.16;5073723;28;20284;-81
2023/06/16 05:50:14;;;;;;;6.55;3.65;;;;;;;-145.69;nan;51854.28;5073879;28;20191;-81
2023/06/16 05:52:41;;;;;;;4.32;3.30;;;;;;;-145.69;nan;51878.03;5074031;28;20211;-81
2023/06/16 05:55:08;;;;;;;7.47;3.70;;;;;;;-145.69;nan;51826.56;5073921;28;20234;-81
2023/06/16 05:57:37;;;;;;;4.45;2.95;;;;;;;-145.69;nan;51850.31;5073937;28;20199;-81
2023/06/16 06:00:04;;;;;;;5.18;3.35;;;;;;;-145.69;nan;51850.31;5073688;28;20195;-81
2023/06/16 06:02:30;;;;;;;5.60;2.72;;;;;;;-145.69;nan;51846.34;5074032;28;20202;-81
2023/06/16 06:04:57;;;;;;;5.15;3.30;;;;;;;-145.69;nan;51828.53;5074012;28;20195;-81
2023/06/16 06:07:23;;;;;;;4.35;3.00;;;;;;;-145.69;nan;51844.38;5073630;28;20199;-79
2023/06/16 06:09:50;;;;;;;3.70;3.08;;;;;;;-145.69;nan;51866.16;5073650;28;20209;-81
2023/06/16 06:12:17;;;;;;;7.35;2.90;;;;;;;-145.69;nan;51862.19;5072784;28;20206;-82
2023/06/16 06:14:45;;;;;;;7.00;3.45;;;;;;;-145.69;nan;51854.28;5073601;28;20317;-81
2023/06/16 06:17:11;;;;;;;3.65;3.15;;;;;;;-145.69;nan;51862.19;5073577;28;20198;-81
2023/06/16 06:19:38;;;;;;;4.47;2.83;;;;;;;-145.69;nan;51864.16;5073073;28;20191;-81
2023/06/16 06:22:05;;;;;;;6.82;3.53;;;;;;;-145.69;nan;51842.38;5073705;28;20206;-81
2023/06/16 06:24:32;;;;;;;7.65;3.45;;;;;;;-145.69;nan;51864.16;5073581;28;20199;-81
2023/06/16 06:26:58;;;;;;;7.25;3.75;;;;;;;-145.69;nan;51866.16;5071430;28;20255;-80
2023/06/16 06:29:25;;;;;;;4.55;3.30;;;;;;;-145.69;nan;51864.16;5073170;28;20219;-81
2023/06/16 06:31:52;;;;;;;6.25;3.60;;;;;;;-145.69;nan;51852.28;5073606;28;20205;-81
2023/06/16 06:34:19;;;;;;;4.57;3.55;;;;;;;-145.69;nan;51866.16;5073126;28;20199;-81
2023/06/16 06:36:47;;;;;;;6.13;3.65;;;;;;;-145.69;nan;51838.44;5073412;28;20264;-82
2023/06/16 06:39:14;;;;;;;4.80;3.58;;;;;;;-145.69;nan;51840.41;5073099;28;20210;-82
2023/06/16 06:41:40;;;;;;;5.50;3.42;;;;;;;-145.69;nan;51866.16;5073260;28;20207;-81
2023/06/16 06:44:07;;;;;;;6.95;3.47;;;;;;;-145.69;nan;51858.22;5073397;28;20845;-81
2023/06/16 06:46:34;;;;;;;8.00;3.88;;;;;;;-145.69;nan;51874.06;5073898;28;20206;-82
2023/06/16 06:49:01;;;;;;;5.47;3.78;;;;;;;-145.69;nan;51846.34;5072333;28;20222;-82
2023/06/16 06:51:28;;;;;;;6.75;3.50;;;;;;;-145.69;nan;51874.06;5072022;28;20191;-81
2023/06/16 06:53:55;;;;;;;5.60;3.70;;;;;;;-145.69;nan;51858.22;5072623;28;20286;-81
2023/06/16 06:56:22;;;;;;;7.30;3.65;;;;;;;-145.69;nan;51846.34;5073579;28;20230;-81
2023/06/16 06:58:49;;;;;;;5.15;3.65;;;;;;;-145.69;nan;51842.38;5073444;28;20248;-81
2023/06/16 07:01:15;;;;;;;5.22;3.72;;;;;;;-145.69;nan;51866.16;5073065;28;20600;-81
2023/06/16 07:03:42;;;;;;;11.18;3.83;;;;;;;-145.69;nan;51840.41;5073259;28;20661;-81
2023/06/16 07:06:10;;;;;;;6.63;3.92;;;;;;;-145.69;nan;51856.25;5072893;28;20206;-82
2023/06/16 07:08:37;;;;;;;4.88;4.00;;;;;;;-145.69;nan;51844.38;5072826;28;20260;-81
2023/06/16 07:11:03;;;;;;;8.07;4.10;;;;;;;-145.69;nan;51870.13;5072845;28;20201;-81
2023/06/16 07:13:30;;;;;;;6.78;3.92;;;;;;;-145.69;nan;51816.66;5072916;28;20195;-80
2023/06/16 07:15:56;;;;;;;4.85;3.90;;;;;;;-145.69;nan;51858.22;5072840;28;20238;-80
2023/06/16 07:18:23;;;;;;;6.28;3.63;;;;;;;-145.69;nan;51870.13;5072589;28;20195;-80
2023/06/16 07:20:49;;;;;;;5.90;3.65;;;;;;;-145.69;nan;51838.44;5072331;28;20681;-80
2023/06/16 07:23:17;;;;;;;6.00;4.00;;;;;;;-145.69;nan;51842.38;5072774;28;20259;-80
2023/06/16 07:25:43;;;;;;;7.25;3.85;;;;;;;-145.69;nan;51866.16;5076668;28;20198;-81
2023/06/16 07:28:10;;;;;;;5.10;3.92;;;;;;;-145.69;nan;51832.50;5077262;28;20221;-80
2023/06/16 07:30:36;;;;;;;4.18;3.22;;;;;;;-145.69;nan;51862.19;5076788;28;20195;-80
2023/06/16 07:33:03;;;;;;;6.10;3.30;;;;;;;-145.69;nan;51846.34;5076676;28;20703;-80
2023/06/16 07:35:29;;;;;;;6.68;3.67;;;;;;;-145.69;nan;51838.44;5076513;28;20260;-79
2023/06/16 07:37:58;;;;;;;6.03;3.78;;;;;;;-145.69;nan;51860.22;5076881;28;20199;-79
2023/06/16 07:40:26;;;;;;;9.57;3.80;;;;;;;-145.69;nan;51842.38;5076781;28;20388;-79
2023/06/16 07:42:53;;;;;;;9.23;3.45;;;;;;;-145.69;nan;51850.31;5076604;28;20249;-80
2023/06/16 07:45:19;;;;;;;6.60;3.30;;;;;;;-145.69;nan;51878.03;5076629;28;20252;-81
2023/06/16 07:47:46;;;;;;;5.65;3.42;;;;;;;-145.69;nan;51828.53;5076104;28;20223;-78
2023/06/16 07:50:13;;;;;;;9.77;3.85;;;;;;;-145.69;nan;51866.16;5075644;28;20199;-77
2023/06/16 07:52:40;;;;;;;10.68;3.22;;;;;;;-145.69;nan;51842.38;5076055;28;20237;-78
2023/06/16 07:55:07;;;;;;;9.07;3.28;;;;;;;-145.69;nan;51840.41;5076171;28;20233;-79
2023/06/16 07:57:35;;;;;;;5.07;3.33;;;;;;;-145.69;nan;51818.63;5076018;28;20195;-77
2023/06/16 08:00:04;;;;;;;5.53;2.90;;;;;;;-145.69;nan;51846.34;5075794;28;20195;-79
2023/06/16 08:02:30;;;;;;;6.50;3.50;;;;;;;-145.69;nan;51866.16;5076198;28;20207;-79
2023/06/16 08:05:00;;;;;;;10.52;3.13;;;;;;;-145.69;nan;51864.16;5075659;28;20285;-81
2023/06/16 08:07:29;;;;;;;8.55;3.15;;;;;;;-145.69;nan;51800.81;5076202;28;20285;-81
2023/06/16 08:09:56;;;;;;;8.18;3.45;;;;;;;-145.69;nan;51842.38;5075758;28;20213;-78
2023/06/16 08:12:22;;;;;;;5.97;3.58;;;;;;;-145.69;nan;51856.25;5075992;28;20195;-79
2023/06/16 08:14:50;;;;;;;7.75;3.40;;;;;;;-145.69;nan;51800.81;5075881;28;20226;-79
2023/06/16 08:17:17;;;;;;;6.43;3.70;;;;;;;-145.69;nan;51814.66;5075681;28;20199;-79
2023/06/16 08:19:43;;;;;;;4.45;3.45;;;;;;;-145.69;nan;51826.56;5075573;28;20661;-79
2023/06/16 08:22:11;;;;;;;8.52;3.78;;;;;;;-145.69;nan;51854.28;5075933;28;20630;-79
2023/06/16 08:24:37;;;;;;;4.90;3.17;;;;;;;-145.69;nan;51842.38;5075905;28;20715;-78
2023/06/16 08:27:06;;;;;;;7.68;3.28;;;;;;;-145.69;nan;51844.38;5075891;28;20202;-79
2023/06/16 08:29:33;;;;;;;5.97;3.20;;;;;;;-145.69;nan;51826.56;5075778;28;20671;-79
2023/06/16 08:32:01;;;;;;;5.28;3.05;;;;;;;-145.69;nan;51814.66;5074311;28;20191;-79
2023/06/16 08:34:28;;;;;;;5.75;3.53;;;;;;;-145.69;nan;51848.34;5070056;28;20277;-79
2023/06/16 08:36:55;;;;;;;7.10;3.45;;;;;;;-145.69;nan;51866.16;5058653;28;20219;-79
2023/06/16 08:39:21;;;;;;;6.57;3.53;;;;;;;-145.69;nan;51822.59;5073563;28;20573;-78
2023/06/16 08:41:50;;;;;;;6.00;3.28;;;;;;;-145.69;nan;51814.66;5073308;28;20206;-79
2023/06/16 08:44:18;;;;;;;5.07;2.85;;;;;;;-145.69;nan;51818.63;5074023;28;20203;-79
2023/06/16 08:46:45;;;;;;;10.95;3.55;;;;;;;-145.69;nan;51779.03;5075054;28;20665;-79
2023/06/16 08:49:15;;;;;;;6.47;3.15;;;;;;;-145.69;nan;51816.66;5074795;28;20254;-79
2023/06/16 08:51:47;;;;;;;5.82;3.25;;;;;;;-145.69;nan;51800.81;5075563;28;20202;-79
2023/06/16 08:54:14;;;;;;;9.18;3.42;;;;;;;-145.69;nan;51761.22;5074999;28;20202;-79
2023/06/16 08:56:45;;;;;;;7.18;3.17;;;;;;;-145.69;nan;51771.09;5074832;28;20219;-79
2023/06/16 08:59:12;;;;;;;4.53;3.17;;;;;;;-145.69;nan;51765.16;5075314;28;20203;-79
2023/06/16 09:01:40;;;;;;;6.60;3.60;;;;;;;-145.69;nan;51794.88;5075027;28;20585;-79
2023/06/16 09:04:09;;;;;;;4.68;3.08;;;;;;;-145.69;nan;51783.00;5075253;28;20230;-79
2023/06/16 09:06:37;;;;;;;8.05;3.08;;;;;;;-145.69;nan;51788.94;5074810;28;20226;-78
2023/06/16 09:09:04;;;;;;;6.85;2.90;;;;;;;-145.69;nan;51767.16;5074921;28;20253;-79
2023/06/16 09:11:31;;;;;;;4.65;2.97;;;;;;;-145.69;nan;51781.00;5074905;28;20206;-79
2023/06/16 09:13:58;;;;;;;3.95;2.80;;;;;;;-145.69;nan;51781.00;5074293;28;20653;-79
2023/06/16 09:16:24;;;;;;;6.03;3.28;;;;;;;-145.69;nan;51792.88;5075033;28;20746;-79
2023/06/16 09:18:51;;;;;;;5.47;3.08;;;;;;;-145.69;nan;51784.97;5074888;28;20679;-79
2023/06/16 09:21:20;;;;;;;5.75;3.20;;;;;;;-145.69;nan;51808.72;5074651;28;20201;-79
2023/06/16 09:23:56;;;;;;;6.75;3.15;;;;;;;-145.69;nan;51824.56;5074614;28;20297;-76
2023/06/16 09:26:23;;;;;;;4.00;2.90;;;;;;;-145.69;nan;51798.81;5074914;28;20202;-78
2023/06/16 09:28:52;;;;;;;6.40;2.53;;;;;;;-145.69;nan;51794.88;5074840;28;20226;-79
2023/06/16 09:31:23;;;;;;;8.25;3.35;;;;;;;-145.69;nan;51810.72;5074414;28;20289;-79
2023/06/16 09:33:49;;;;;;;10.13;2.75;;;;;;;-145.69;nan;51794.88;5074891;28;20293;-79
2023/06/16 09:36:26;;;;;;;6.35;3.15;;;;;;;-145.69;nan;51832.50;5073918;28;20589;-79
2023/06/16 09:38:54;;;;;;;7.78;3.20;;;;;;;-145.69;nan;51810.72;5074728;28;20210;-79
2023/06/16 09:41:21;;;;;;;4.22;2.90;;;;;;;-145.69;nan;51792.88;5074620;28;20280;-79
2023/06/16 09:43:47;;;;;;;6.55;3.22;;;;;;;-145.69;nan;51781.00;5074017;28;20199;-79
2023/06/16 09:46:15;;;;;;;6.35;3.67;;;;;;;-145.69;nan;51783.00;5074305;28;20203;-79
2023/06/16 09:48:48;;;;;;;5.28;3.30;;;;;;;-145.69;nan;51792.88;5073996;28;20231;-77
2023/06/16 09:51:18;;;;;;;7.55;3.58;;;;;;;-145.69;nan;51775.06;5073427;28;20202;-79
2023/06/16 09:53:45;;;;;;;8.10;3.15;;;;;;;-145.69;nan;51763.19;5074085;28;20234;-78
2023/06/16 09:56:16;;;;;;;3.25;2.60;;;;;;;-145.69;nan;51806.75;5073635;28;20226;-79
2023/06/16 09:58:42;;;;;;;6.65;3.05;;;;;;;-145.69;nan;51788.94;5073988;28;20202;-78
2023/06/16 10:01:10;;;;;;;5.53;3.17;;;;;;;-145.69;nan;51794.88;5073375;28;20646;-79
2023/06/16 10:03:38;;;;;;;5.30;3.13;;;;;;;-145.69;nan;51798.81;5073486;28;20654;-78
2023/06/16 10:06:12;;;;;;;6.15;3.63;;;;;;;-145.69;nan;51794.88;5073711;28;20198;-78
2023/06/16 10:08:41;;;;;;;7.45;3.22;;;;;;;-145.69;nan;51798.81;5073915;28;20199;-79
2023/06/16 10:11:11;;;;;;;5.10;3.40;;;;;;;-145.69;nan;51794.88;5073738;28;20194;-79
2023/06/16 10:13:42;;;;;;;6.75;2.97;;;;;;;-145.69;nan;51806.75;5073260;28;20202;-78
2023/06/16 10:16:11;;;;;;;4.70;3.40;;;;;;;-145.69;nan;51783.00;5073781;28;20250;-78
2023/06/16 10:18:40;;;;;;;9.75;3.65;;;;;;;-145.69;nan;51798.81;5073585;28;20206;-78
2023/06/16 10:21:10;;;;;;;6.13;3.30;;;;;;;-145.69;nan;51794.88;5072567;28;20229;-79
2023/06/16 10:23:36;;;;;;;6.50;3.28;;;;;;;-145.69;nan;51824.56;5072020;28;20569;-78
2023/06/16 10:26:04;;;;;;;7.70;2.70;;;;;;;-145.69;nan;51822.59;5069780;28;20195;-79
2023/06/16 10:28:32;;;;;;;7.25;3.50;;;;;;;-145.69;nan;51818.63;5073674;28;20202;-79
2023/06/16 10:31:02;;;;;;;6.75;3.53;;;;;;;-145.69;nan;51816.66;5073116;28;20248;-79
2023/06/16 10:33:28;;;;;;;7.53;3.33;;;;;;;-145.69;nan;51810.72;5073264;28;20199;-79
2023/06/16 10:36:02;;;;;;;9.70;3.67;;;;;;;-145.69;nan;51790.91;5071464;28;20302;-79
2023/06/16 10:38:38;;;;;;;10.35;3.17;;;;;;;-145.69;nan;51796.84;5071709;28;20207;-79
2023/06/16 10:41:12;;;;;;;6.97;2.90;;;;;;;-145.69;nan;51814.66;5072818;28;20198;-79
2023/06/16 10:43:38;;;;;;;6.80;3.20;;;;;;;-145.69;nan;51806.75;5072874;28;20203;-79
2023/06/16 10:46:20;;;;;;;6.43;2.90;;;;;;;-145.69;nan;51796.84;5072896;28;20197;-79
2023/06/16 10:48:58;;;;;;;6.18;3.35;;;;;;;-145.69;nan;51796.84;5072826;28;20253;-79
2023/06/16 10:51:48;;;;;;;8.43;3.45;;;;;;;-145.69;nan;51798.81;5072516;28;20836;-79
2023/06/16 10:54:36;;;;;;;4.82;2.90;;;;;;;-145.69;nan;51810.72;5073395;28;20290;-79
2023/06/16 10:57:09;;;;;;;5.97;3.25;;;;;;;-145.69;nan;51786.94;5073040;28;20329;-79
2023/06/16 11:00:07;;;;;;;7.85;3.30;;;;;;;-145.69;nan;51775.06;5072524;28;20219;-86
2023/06/16 11:02:47;;;;;;;7.15;3.33;;;;;;;-145.69;nan;51775.06;5069851;28;20198;-82
2023/06/16 11:05:18;;;;;;;6.93;2.97;;;;;;;-145.69;nan;51781.00;5073508;28;20202;-82
2023/06/16 11:07:47;;;;;;;7.35;3.30;;;;;;;-145.69;nan;51806.75;5053044;28;20203;-81
2023/06/16 11:10:18;;;;;;;8.82;3.83;;;;;;;-145.69;nan;51783.00;5052985;28;20214;-82
2023/06/16 11:12:45;;;;;;;6.60;3.30;;;;;;;-145.69;nan;51767.16;5057324;28;20234;-82
2023/06/16 11:15:12;;;;;;;4.32;3.03;;;;;;;-145.69;nan;51775.06;5073061;28;20650;-81
2023/06/16 11:17:44;;;;;;;5.47;3.10;;;;;;;-145.69;nan;51747.34;5073369;28;20226;-82
2023/06/16 11:20:20;;;;;;;10.00;3.67;;;;;;;-145.69;nan;51784.97;5073244;28;20234;-82
2023/06/16 11:22:46;;;;;;;11.25;3.45;;;;;;;-145.69;nan;51757.25;5072763;28;20194;-81
2023/06/16 11:25:13;;;;;;;4.40;2.75;;;;;;;-145.69;nan;51783.00;5073025;28;20203;-80
2023/06/16 11:27:40;;;;;;;7.97;2.95;;;;;;;-145.69;nan;51775.06;5072677;28;20325;-80
2023/06/16 11:30:08;;;;;;;13.15;3.42;;;;;;;-145.69;nan;51757.25;5073069;28;20639;-80
2023/06/16 11:32:37;;;;;;;6.03;3.33;;;;;;;-145.69;nan;51753.28;5072823;28;20657;-81
2023/06/16 11:35:05;;;;;;;10.48;3.50;;;;;;;-145.69;nan;51775.06;5072022;28;20297;-82
2023/06/16 11:37:52;;;;;;;7.32;3.50;;;;;;;-145.69;nan;51757.25;5072506;28;20233;-81